createdAt,value
2023-05-12T11:50:23.512Z,5.18
2023-05-12T11:53:13.593Z,4.28
2023-05-12T11:56:00.637Z,4.30
2023-05-12T11:58:57.522Z,4.47
2023-05-12T12:01:46.627Z,6.05
2023-05-12T12:04:40.671Z,5.18
2023-05-12T12:07:35.750Z,4.85
2023-05-12T12:10:22.563Z,4.63
2023-05-12T12:13:09.384Z,5.30
2023-05-12T12:15:56.228Z,5.72
2023-05-12T12:18:43.412Z,4.35
2023-05-12T12:21:30.419Z,5.10
2023-05-12T12:24:17.550Z,4.32
2023-05-12T12:27:05.410Z,5.72
2023-05-12T12:29:52.242Z,5.63
2023-05-12T12:32:39.591Z,5.40
2023-05-12T12:35:26.777Z,4.55
2023-05-12T12:38:13.606Z,4.35
2023-05-12T12:41:00.460Z,4.15
2023-05-12T12:43:47.341Z,6.05
2023-05-12T12:46:34.270Z,5.95
2023-05-12T12:49:22.016Z,5.07
2023-05-12T12:52:09.127Z,4.85
2023-05-12T12:54:56.948Z,4.57
2023-05-12T12:57:43.757Z,5.05
2023-05-12T13:00:30.582Z,4.10
2023-05-12T13:03:20.070Z,4.68
2023-05-12T13:06:07.325Z,4.95
2023-05-12T13:08:54.305Z,5.45
2023-05-12T13:11:41.249Z,5.85
2023-05-12T13:14:28.088Z,4.70
2023-05-12T13:17:14.962Z,4.97
2023-05-12T13:20:02.332Z,5.68
2023-05-12T13:22:49.310Z,4.18
2023-05-12T13:25:36.137Z,5.35
2023-05-12T13:28:22.935Z,5.32
2023-05-12T13:31:09.924Z,5.30
2023-05-12T13:33:56.904Z,5.53
2023-05-12T13:36:43.748Z,4.47
2023-05-12T13:39:30.633Z,6.72
2023-05-12T13:42:17.456Z,5.53
2023-05-12T13:45:05.150Z,5.13
2023-05-12T13:47:51.985Z,6.15
2023-05-12T13:50:38.993Z,5.60
2023-05-12T13:53:25.797Z,6.50
2023-05-12T13:56:12.732Z,6.15
2023-05-12T13:58:59.603Z,5.53
2023-05-12T14:01:46.951Z,6.47
2023-05-12T14:04:33.977Z,6.35
2023-05-12T14:07:21.025Z,6.82
2023-05-12T14:10:08.164Z,6.68
2023-05-12T14:12:55.415Z,6.00
2023-05-12T14:15:49.457Z,5.70
2023-05-12T14:18:37.660Z,6.57
2023-05-12T14:21:24.547Z,5.38
2023-05-12T14:24:11.812Z,5.95
2023-05-12T14:26:59.565Z,6.63
2023-05-12T14:29:46.391Z,5.95
2023-05-12T14:32:34.367Z,6.38
2023-05-12T14:35:21.751Z,6.50
2023-05-12T14:38:09.241Z,6.00
2023-05-12T14:40:56.067Z,7.20
2023-05-12T14:43:42.923Z,7.05
2023-05-12T14:46:29.796Z,6.78
2023-05-12T14:49:20.649Z,6.57
2023-05-12T14:52:08.290Z,5.97
2023-05-12T14:54:55.273Z,6.07
2023-05-12T14:57:42.148Z,6.60
2023-05-12T15:00:28.967Z,5.55
2023-05-12T15:03:16.500Z,6.22
2023-05-12T15:06:06.996Z,5.68
2023-05-12T15:08:54.340Z,5.47
2023-05-12T15:11:44.489Z,6.35
2023-05-12T15:14:31.324Z,6.45
2023-05-12T15:17:18.493Z,6.13
2023-05-12T15:20:06.782Z,8.05
2023-05-12T15:22:54.454Z,9.65
2023-05-12T15:25:41.856Z,8.50
2023-05-12T15:28:28.686Z,7.57
2023-05-12T15:31:15.706Z,6.47
2023-05-12T15:34:03.007Z,6.25
2023-05-12T15:36:50.884Z,6.00
2023-05-12T15:39:37.704Z,6.50
2023-05-12T15:42:30.103Z,5.40
2023-05-12T15:45:19.804Z,5.55
2023-05-12T15:48:08.780Z,6.15
2023-05-12T15:50:56.572Z,6.28
2023-05-12T15:53:43.474Z,6.22
2023-05-12T15:56:30.387Z,4.90
2023-05-12T15:59:17.297Z,6.00
2023-05-12T16:02:04.167Z,5.80
2023-05-12T16:04:51.052Z,4.18
2023-05-12T16:07:38.773Z,4.75
2023-05-12T16:10:25.610Z,5.35
2023-05-12T16:13:13.758Z,4.80
2023-05-12T16:16:01.091Z,4.90
2023-05-12T16:18:47.978Z,4.75
2023-05-12T16:21:34.882Z,4.88
2023-05-12T16:24:21.889Z,3.90
2023-05-12T16:27:08.835Z,4.70
2023-05-12T16:29:55.727Z,4.75
2023-05-12T16:32:42.658Z,3.15
2023-05-12T16:35:29.445Z,3.95
2023-05-12T16:38:16.385Z,4.65
2023-05-12T16:41:03.219Z,3.35
2023-05-12T16:43:50.025Z,4.35
2023-05-12T16:46:37.729Z,3.70
2023-05-12T16:49:26.092Z,5.10
2023-05-12T16:52:14.768Z,3.88
2023-05-12T16:55:01.583Z,5.03
2023-05-12T16:57:48.402Z,4.53
2023-05-12T17:00:35.247Z,4.13
2023-05-12T17:03:22.881Z,6.75
2023-05-12T17:06:09.845Z,3.08
2023-05-12T17:08:56.638Z,3.95
2023-05-12T17:11:43.461Z,3.55
2023-05-12T17:14:30.832Z,3.75
2023-05-12T17:17:17.645Z,3.17
2023-05-12T17:20:06.027Z,5.72
2023-05-12T17:22:53.379Z,3.10
2023-05-12T17:25:40.236Z,4.45
2023-05-12T17:28:27.494Z,3.78
2023-05-12T17:31:14.347Z,2.95
2023-05-12T17:34:01.212Z,2.47
2023-05-12T17:36:48.588Z,2.88
2023-05-12T17:39:35.981Z,3.92
2023-05-12T17:42:23.154Z,2.72
2023-05-12T17:45:10.586Z,2.67
2023-05-12T17:47:57.417Z,2.40
2023-05-12T17:50:44.316Z,2.33
2023-05-12T17:53:31.833Z,3.70
2023-05-12T17:56:18.739Z,1.98
2023-05-12T17:59:05.551Z,3.50
2023-05-12T18:01:52.497Z,3.05
2023-05-12T18:04:39.833Z,4.15
2023-05-12T18:07:27.156Z,2.03
2023-05-12T18:10:14.202Z,3.58
2023-05-12T18:13:00.985Z,2.92
2023-05-12T18:15:49.014Z,2.50
2023-05-12T18:18:35.881Z,2.83
2023-05-12T18:21:22.887Z,2.20
2023-05-12T18:24:09.720Z,3.90
2023-05-12T18:26:56.538Z,3.83
2023-05-12T18:29:43.481Z,2.70
2023-05-12T18:32:31.548Z,3.17
2023-05-12T18:35:19.705Z,2.97
2023-05-12T18:38:07.535Z,2.63
2023-05-12T18:40:54.412Z,2.85
2023-05-12T18:43:43.041Z,3.13
2023-05-12T18:46:29.863Z,3.40
2023-05-12T18:49:16.730Z,3.33
2023-05-12T18:52:03.999Z,4.22
2023-05-12T18:54:50.938Z,4.03
2023-05-12T18:57:37.842Z,3.33
2023-05-12T19:00:27.490Z,3.10
2023-05-12T19:03:14.372Z,2.38
2023-05-12T19:06:01.467Z,4.15
2023-05-12T19:08:48.375Z,3.30
2023-05-12T19:11:35.244Z,3.50
2023-05-12T19:14:22.538Z,3.08
2023-05-12T19:17:09.656Z,3.45
2023-05-12T19:19:56.496Z,3.80
2023-05-12T19:22:44.061Z,3.72
2023-05-12T19:25:31.320Z,4.28
2023-05-12T19:28:18.120Z,5.78
2023-05-12T19:31:05.009Z,3.67
2023-05-12T19:33:52.014Z,3.72
2023-05-12T19:36:39.051Z,4.70
2023-05-12T19:39:25.845Z,4.32
2023-05-12T19:42:12.656Z,4.45
2023-05-12T19:45:00.565Z,3.58
2023-05-12T19:47:47.458Z,2.88
2023-05-12T19:50:34.325Z,4.05
2023-05-12T19:53:21.525Z,2.97
2023-05-12T19:56:08.304Z,2.97
2023-05-12T19:58:55.183Z,4.18
2023-05-12T20:01:42.090Z,4.07
2023-05-12T20:04:28.963Z,3.90
2023-05-12T20:07:15.836Z,4.78
2023-05-12T20:10:03.156Z,3.70
2023-05-12T20:12:50.047Z,3.65
2023-05-12T20:15:36.986Z,5.22
2023-05-12T20:18:24.002Z,4.38
2023-05-12T20:21:10.896Z,4.65
2023-05-12T20:23:57.819Z,3.85
2023-05-12T20:26:44.690Z,4.28
2023-05-12T20:29:31.530Z,5.28
2023-05-12T20:32:18.424Z,5.50
2023-05-12T20:35:05.688Z,5.20
2023-05-12T20:37:52.649Z,5.13
2023-05-12T20:40:40.500Z,4.78
2023-05-12T20:43:27.511Z,4.90
2023-05-12T20:46:14.359Z,5.13
2023-05-12T20:49:02.822Z,3.67
2023-05-12T20:51:49.633Z,4.90
2023-05-12T20:54:36.490Z,6.35
2023-05-12T20:57:23.392Z,4.93
2023-05-12T21:00:11.220Z,6.30
2023-05-12T21:02:58.664Z,5.57
2023-05-12T21:05:48.228Z,6.05
2023-05-12T21:08:35.074Z,5.40
2023-05-12T21:11:22.308Z,6.13
2023-05-12T21:14:09.171Z,5.53
2023-05-12T21:16:56.006Z,5.82
2023-05-12T21:19:44.047Z,6.30
2023-05-12T21:22:31.231Z,5.57
2023-05-12T21:25:18.078Z,5.15
2023-05-12T21:28:05.275Z,5.03
2023-05-12T21:30:52.059Z,5.38
2023-05-12T21:33:38.908Z,5.82
2023-05-12T21:36:25.768Z,5.18
2023-05-12T21:39:12.636Z,5.22
2023-05-12T21:41:59.919Z,5.18
2023-05-12T21:44:50.462Z,6.10
2023-05-12T21:47:37.329Z,4.75
2023-05-12T21:50:24.139Z,5.15
2023-05-12T21:53:11.051Z,5.57
2023-05-12T21:55:58.091Z,5.72
2023-05-12T21:58:44.906Z,5.93
2023-05-12T22:01:31.788Z,6.68
2023-05-12T22:04:18.667Z,5.55
2023-05-12T22:07:06.038Z,5.72
2023-05-12T22:09:52.919Z,6.80
2023-05-12T22:12:40.596Z,6.28
2023-05-12T22:15:27.537Z,7.38
2023-05-12T22:18:14.568Z,7.03
2023-05-12T22:21:01.384Z,6.05
2023-05-12T22:23:48.268Z,6.32
2023-05-12T22:26:35.066Z,5.75
2023-05-12T22:29:21.915Z,5.93
2023-05-12T22:32:08.783Z,6.68
2023-05-12T22:34:55.997Z,7.20
2023-05-12T22:37:43.183Z,6.32
2023-05-12T22:40:30.650Z,6.22
2023-05-12T22:43:17.929Z,5.97
2023-05-12T22:46:07.644Z,7.30
2023-05-12T22:48:54.515Z,6.13
2023-05-12T22:51:41.304Z,7.38
2023-05-12T22:54:28.095Z,5.63
2023-05-12T22:57:15.275Z,6.60
2023-05-12T23:00:02.095Z,6.32
2023-05-12T23:02:48.984Z,5.97
2023-05-12T23:05:35.945Z,5.28
2023-05-12T23:08:22.835Z,5.82
2023-05-12T23:11:09.787Z,6.20
2023-05-12T23:13:56.571Z,6.78
2023-05-12T23:16:43.516Z,6.97
2023-05-12T23:19:30.439Z,6.72
2023-05-12T23:22:17.231Z,6.93
2023-05-12T23:25:04.206Z,7.18
2023-05-12T23:27:51.083Z,6.90
2023-05-12T23:30:37.936Z,6.68
2023-05-12T23:33:24.865Z,5.60
2023-05-12T23:36:13.465Z,6.05
2023-05-12T23:39:00.404Z,6.13
2023-05-12T23:41:47.199Z,5.50
2023-05-12T23:44:34.057Z,5.20
2023-05-12T23:47:21.076Z,6.60
2023-05-12T23:50:08.618Z,6.53
2023-05-12T23:52:56.454Z,6.05
2023-05-12T23:55:43.257Z,6.65
2023-05-12T23:58:30.080Z,6.25
